Durand, Wisconsin
Current Conditions -  °F | °C
As of 9:35 PM on Saturday 25 Oct 2014 (Local Time) from KLUM Reporting Station
Clear Clear  
Wind Chill: 46°   Ceiling: Unl
Heat Index: 49°   Visibility: 10mi
Dew Point: 27°   Wind: 8mph
Humidity: 43%   Direction: 270°W
Pressure: 30.02"   Gusts: NA
Location:  44.63°N, 91.97°W
Report Text: KLUM 260235Z AUTO 27007KT 10SM CLR 10/M03 A3002 RMK AO2 T00951026
Loading
Personal Weather Stations






























Interactive Weather Map
Tropical Storm Tracking
New forecast layout! Learn more

10-Day Weather Forecast

Advertisements
Track Severe Weather on mobile